sensor_id;sensor_type;location;lat;lon;timestamp;P1;durP1;ratioP1;P2;durP2;ratioP2
36575;SDS011;45700;50.930;5.168;2022-10-29T09:10:53;8.45;;;2.20;;
36575;SDS011;45700;50.930;5.168;2022-10-29T09:27:43;6.32;;;3.17;;
36575;SDS011;45700;50.930;5.168;2022-10-29T09:31:49;6.18;;;2.70;;
36575;SDS011;45700;50.930;5.168;2022-10-29T09:35:53;6.57;;;2.72;;
36575;SDS011;45700;50.930;5.168;2022-10-29T09:39:55;7.40;;;3.75;;
36575;SDS011;45700;50.930;5.168;2022-10-29T09:43:58;5.72;;;2.90;;
36575;SDS011;45700;50.930;5.168;2022-10-29T09:56:06;7.18;;;3.08;;
36575;SDS011;45700;50.930;5.168;2022-10-29T10:00:18;11.98;;;4.72;;
36575;SDS011;45700;50.930;5.168;2022-10-29T10:04:22;7.60;;;2.97;;
36575;SDS011;45700;50.930;5.168;2022-10-29T10:08:27;10.77;;;3.33;;
36575;SDS011;45700;50.930;5.168;2022-10-29T10:16:31;6.85;;;2.50;;
36575;SDS011;45700;50.930;5.168;2022-10-29T10:24:34;5.35;;;2.40;;
36575;SDS011;45700;50.930;5.168;2022-10-29T10:28:35;6.57;;;2.33;;
36575;SDS011;45700;50.930;5.168;2022-10-29T10:32:36;6.65;;;2.15;;
36575;SDS011;45700;50.930;5.168;2022-10-29T10:36:38;4.22;;;2.30;;
36575;SDS011;45700;50.930;5.168;2022-10-29T10:40:40;7.13;;;1.95;;
36575;SDS011;45700;50.930;5.168;2022-10-29T10:44:43;6.30;;;2.72;;
36575;SDS011;45700;50.930;5.168;2022-10-29T10:48:55;8.25;;;2.33;;
36575;SDS011;45700;50.930;5.168;2022-10-29T10:52:57;6.07;;;2.15;;
36575;SDS011;45700;50.930;5.168;2022-10-29T10:57:00;5.82;;;2.33;;
36575;SDS011;45700;50.930;5.168;2022-10-29T11:01:02;7.43;;;1.85;;
36575;SDS011;45700;50.930;5.168;2022-10-29T11:05:08;10.38;;;2.20;;
36575;SDS011;45700;50.930;5.168;2022-10-29T11:13:31;7.03;;;2.47;;
36575;SDS011;45700;50.930;5.168;2022-10-29T11:17:46;5.60;;;2.00;;
36575;SDS011;45700;50.930;5.168;2022-10-29T11:26:12;6.28;;;1.92;;
36575;SDS011;45700;50.930;5.168;2022-10-29T11:30:17;8.60;;;2.75;;
36575;SDS011;45700;50.930;5.168;2022-10-29T11:34:27;3.50;;;1.85;;
36575;SDS011;45700;50.930;5.168;2022-10-29T11:38:37;4.68;;;2.28;;
36575;SDS011;45700;50.930;5.168;2022-10-29T11:42:39;6.18;;;2.00;;
36575;SDS011;45700;50.930;5.168;2022-10-29T12:08:05;4.07;;;1.95;;
36575;SDS011;45700;50.930;5.168;2022-10-29T12:12:20;5.68;;;1.98;;
36575;SDS011;45700;50.930;5.168;2022-10-29T12:20:31;4.57;;;2.25;;
36575;SDS011;45700;50.930;5.168;2022-10-29T12:29:15;3.90;;;1.65;;
36575;SDS011;45700;50.930;5.168;2022-10-29T12:33:22;7.30;;;1.73;;
36575;SDS011;45700;50.930;5.168;2022-10-29T12:41:26;5.57;;;1.92;;
36575;SDS011;45700;50.930;5.168;2022-10-29T12:45:31;5.50;;;2.00;;
36575;SDS011;45700;50.930;5.168;2022-10-29T12:49:39;3.72;;;1.90;;
36575;SDS011;45700;50.930;5.168;2022-10-29T12:57:46;6.20;;;1.98;;
36575;SDS011;45700;50.930;5.168;2022-10-29T13:01:47;7.95;;;1.98;;
36575;SDS011;45700;50.930;5.168;2022-10-29T13:05:48;7.82;;;2.25;;
36575;SDS011;45700;50.930;5.168;2022-10-29T13:09:50;7.03;;;2.20;;
36575;SDS011;45700;50.930;5.168;2022-10-29T13:14:10;5.65;;;2.63;;
36575;SDS011;45700;50.930;5.168;2022-10-29T13:18:22;6.50;;;2.13;;
36575;SDS011;45700;50.930;5.168;2022-10-29T13:22:33;7.38;;;2.05;;
36575;SDS011;45700;50.930;5.168;2022-10-29T13:39:25;7.30;;;2.08;;
36575;SDS011;45700;50.930;5.168;2022-10-29T13:43:26;4.03;;;1.95;;
36575;SDS011;45700;50.930;5.168;2022-10-29T13:47:27;6.25;;;2.08;;
36575;SDS011;45700;50.930;5.168;2022-10-29T13:51:30;6.90;;;2.00;;
36575;SDS011;45700;50.930;5.168;2022-10-29T13:55:34;9.65;;;2.25;;
36575;SDS011;45700;50.930;5.168;2022-10-29T13:59:44;6.03;;;2.10;;
36575;SDS011;45700;50.930;5.168;2022-10-29T14:12:01;4.53;;;2.17;;
36575;SDS011;45700;50.930;5.168;2022-10-29T14:20:24;6.85;;;1.98;;
36575;SDS011;45700;50.930;5.168;2022-10-29T14:24:25;6.13;;;2.20;;
36575;SDS011;45700;50.930;5.168;2022-10-29T14:28:27;6.28;;;2.45;;
36575;SDS011;45700;50.930;5.168;2022-10-29T14:32:35;5.30;;;2.28;;
36575;SDS011;45700;50.930;5.168;2022-10-29T14:36:41;5.00;;;2.00;;
36575;SDS011;45700;50.930;5.168;2022-10-29T14:40:43;6.20;;;2.55;;
36575;SDS011;45700;50.930;5.168;2022-10-29T14:44:49;7.15;;;2.65;;
36575;SDS011;45700;50.930;5.168;2022-10-29T14:49:08;8.98;;;2.70;;
36575;SDS011;45700;50.930;5.168;2022-10-29T14:53:26;5.72;;;2.00;;
36575;SDS011;45700;50.930;5.168;2022-10-29T14:57:29;5.88;;;2.38;;
36575;SDS011;45700;50.930;5.168;2022-10-29T15:01:31;7.22;;;2.17;;
36575;SDS011;45700;50.930;5.168;2022-10-29T15:05:33;4.30;;;2.40;;
36575;SDS011;45700;50.930;5.168;2022-10-29T15:09:35;8.05;;;2.17;;
36575;SDS011;45700;50.930;5.168;2022-10-29T15:13:36;5.55;;;2.47;;
36575;SDS011;45700;50.930;5.168;2022-10-29T15:17:39;5.40;;;2.53;;
36575;SDS011;45700;50.930;5.168;2022-10-29T15:21:43;7.65;;;2.72;;
36575;SDS011;45700;50.930;5.168;2022-10-29T15:25:44;5.50;;;1.98;;
36575;SDS011;45700;50.930;5.168;2022-10-29T15:29:46;6.97;;;2.20;;
36575;SDS011;45700;50.930;5.168;2022-10-29T15:33:51;7.13;;;2.50;;
36575;SDS011;45700;50.930;5.168;2022-10-29T15:37:53;6.15;;;2.50;;
36575;SDS011;45700;50.930;5.168;2022-10-29T15:41:57;10.55;;;2.60;;
36575;SDS011;45700;50.930;5.168;2022-10-29T15:45:58;5.88;;;2.58;;
36575;SDS011;45700;50.930;5.168;2022-10-29T15:50:00;5.13;;;2.47;;
36575;SDS011;45700;50.930;5.168;2022-10-29T15:54:01;9.30;;;3.00;;
36575;SDS011;45700;50.930;5.168;2022-10-29T15:58:03;5.05;;;2.20;;
36575;SDS011;45700;50.930;5.168;2022-10-29T16:02:09;5.32;;;2.50;;
36575;SDS011;45700;50.930;5.168;2022-10-29T16:06:10;4.88;;;1.92;;
36575;SDS011;45700;50.930;5.168;2022-10-29T16:10:16;5.28;;;2.50;;
36575;SDS011;45700;50.930;5.168;2022-10-29T16:14:17;5.38;;;2.38;;
36575;SDS011;45700;50.930;5.168;2022-10-29T16:18:18;7.65;;;2.72;;
36575;SDS011;45700;50.930;5.168;2022-10-29T16:22:23;7.43;;;2.75;;
36575;SDS011;45700;50.930;5.168;2022-10-29T16:26:27;6.05;;;2.67;;
36575;SDS011;45700;50.930;5.168;2022-10-29T16:30:28;9.90;;;2.50;;
36575;SDS011;45700;50.930;5.168;2022-10-29T16:34:29;8.82;;;2.53;;
36575;SDS011;45700;50.930;5.168;2022-10-29T16:38:30;6.70;;;2.60;;
36575;SDS011;45700;50.930;5.168;2022-10-29T16:42:32;5.57;;;2.72;;
36575;SDS011;45700;50.930;5.168;2022-10-29T16:46:33;4.80;;;2.78;;
36575;SDS011;45700;50.930;5.168;2022-10-29T16:50:34;9.73;;;3.35;;
36575;SDS011;45700;50.930;5.168;2022-10-29T16:54:35;4.45;;;2.75;;
36575;SDS011;45700;50.930;5.168;2022-10-29T16:58:36;6.32;;;2.95;;
36575;SDS011;45700;50.930;5.168;2022-10-29T17:02:37;5.78;;;3.15;;
36575;SDS011;45700;50.930;5.168;2022-10-29T17:06:41;9.45;;;2.83;;
36575;SDS011;45700;50.930;5.168;2022-10-29T17:10:42;4.68;;;2.95;;
36575;SDS011;45700;50.930;5.168;2022-10-29T17:14:43;7.72;;;2.60;;
36575;SDS011;45700;50.930;5.168;2022-10-29T17:18:44;4.15;;;2.55;;
36575;SDS011;45700;50.930;5.168;2022-10-29T17:22:51;6.22;;;2.92;;
36575;SDS011;45700;50.930;5.168;2022-10-29T17:26:52;4.93;;;2.83;;
36575;SDS011;45700;50.930;5.168;2022-10-29T17:30:53;6.13;;;3.10;;
36575;SDS011;45700;50.930;5.168;2022-10-29T17:34:54;5.40;;;3.00;;
36575;SDS011;45700;50.930;5.168;2022-10-29T17:38:55;8.85;;;3.17;;
36575;SDS011;45700;50.930;5.168;2022-10-29T17:42:56;9.82;;;3.65;;
36575;SDS011;45700;50.930;5.168;2022-10-29T17:46:57;6.68;;;3.03;;
36575;SDS011;45700;50.930;5.168;2022-10-29T17:50:59;5.95;;;2.78;;
36575;SDS011;45700;50.930;5.168;2022-10-29T17:55:00;7.25;;;3.47;;
36575;SDS011;45700;50.930;5.168;2022-10-29T17:59:01;7.50;;;3.25;;
36575;SDS011;45700;50.930;5.168;2022-10-29T18:03:02;9.80;;;3.63;;
36575;SDS011;45700;50.930;5.168;2022-10-29T18:07:03;9.48;;;3.95;;
36575;SDS011;45700;50.930;5.168;2022-10-29T18:15:08;10.00;;;4.20;;
36575;SDS011;45700;50.930;5.168;2022-10-29T18:19:09;7.25;;;4.30;;
36575;SDS011;45700;50.930;5.168;2022-10-29T18:23:10;8.63;;;4.65;;
36575;SDS011;45700;50.930;5.168;2022-10-29T18:27:11;11.25;;;4.78;;
36575;SDS011;45700;50.930;5.168;2022-10-29T18:31:12;9.57;;;3.97;;
36575;SDS011;45700;50.930;5.168;2022-10-29T18:35:13;7.50;;;3.83;;
36575;SDS011;45700;50.930;5.168;2022-10-29T18:39:14;9.63;;;4.00;;
36575;SDS011;45700;50.930;5.168;2022-10-29T18:43:15;8.93;;;4.13;;
36575;SDS011;45700;50.930;5.168;2022-10-29T18:47:16;9.80;;;4.10;;
36575;SDS011;45700;50.930;5.168;2022-10-29T18:55:18;8.70;;;4.20;;
36575;SDS011;45700;50.930;5.168;2022-10-29T18:59:19;7.10;;;4.30;;
36575;SDS011;45700;50.930;5.168;2022-10-29T19:03:20;6.90;;;3.88;;
36575;SDS011;45700;50.930;5.168;2022-10-29T19:07:21;8.10;;;3.95;;
36575;SDS011;45700;50.930;5.168;2022-10-29T19:11:23;7.18;;;3.42;;
36575;SDS011;45700;50.930;5.168;2022-10-29T19:15:24;8.13;;;3.80;;
36575;SDS011;45700;50.930;5.168;2022-10-29T19:19:25;12.32;;;4.95;;
36575;SDS011;45700;50.930;5.168;2022-10-29T19:23:26;11.85;;;3.95;;
36575;SDS011;45700;50.930;5.168;2022-10-29T19:27:27;5.85;;;3.22;;
36575;SDS011;45700;50.930;5.168;2022-10-29T19:31:29;11.02;;;3.83;;
36575;SDS011;45700;50.930;5.168;2022-10-29T19:35:31;7.93;;;4.28;;
36575;SDS011;45700;50.930;5.168;2022-10-29T19:39:32;9.93;;;3.13;;
36575;SDS011;45700;50.930;5.168;2022-10-29T19:43:32;7.50;;;3.35;;
36575;SDS011;45700;50.930;5.168;2022-10-29T19:47:34;6.07;;;2.90;;
36575;SDS011;45700;50.930;5.168;2022-10-29T19:51:35;6.57;;;3.38;;
36575;SDS011;45700;50.930;5.168;2022-10-29T19:55:39;8.45;;;4.38;;
36575;SDS011;45700;50.930;5.168;2022-10-29T19:59:40;11.73;;;4.07;;
36575;SDS011;45700;50.930;5.168;2022-10-29T20:03:41;12.98;;;5.65;;
36575;SDS011;45700;50.930;5.168;2022-10-29T20:07:42;11.25;;;5.18;;
36575;SDS011;45700;50.930;5.168;2022-10-29T20:11:43;11.10;;;5.13;;
36575;SDS011;45700;50.930;5.168;2022-10-29T20:15:44;15.07;;;5.32;;
36575;SDS011;45700;50.930;5.168;2022-10-29T20:19:45;9.80;;;5.03;;
36575;SDS011;45700;50.930;5.168;2022-10-29T20:23:46;12.82;;;5.43;;
36575;SDS011;45700;50.930;5.168;2022-10-29T20:27:47;11.02;;;5.55;;
36575;SDS011;45700;50.930;5.168;2022-10-29T20:31:48;8.60;;;5.15;;
36575;SDS011;45700;50.930;5.168;2022-10-29T20:35:51;12.60;;;6.05;;
36575;SDS011;45700;50.930;5.168;2022-10-29T20:39:52;10.90;;;4.43;;
36575;SDS011;45700;50.930;5.168;2022-10-29T20:43:54;7.03;;;3.90;;
36575;SDS011;45700;50.930;5.168;2022-10-29T20:47:55;7.45;;;3.83;;
36575;SDS011;45700;50.930;5.168;2022-10-29T20:51:56;13.90;;;4.40;;
36575;SDS011;45700;50.930;5.168;2022-10-29T20:55:57;11.23;;;4.53;;
36575;SDS011;45700;50.930;5.168;2022-10-29T20:59:58;9.23;;;4.25;;
36575;SDS011;45700;50.930;5.168;2022-10-29T21:03:59;6.72;;;4.13;;
36575;SDS011;45700;50.930;5.168;2022-10-29T21:08:00;7.90;;;4.65;;
36575;SDS011;45700;50.930;5.168;2022-10-29T21:12:01;8.63;;;3.83;;
36575;SDS011;45700;50.930;5.168;2022-10-29T21:16:16;12.90;;;4.72;;
36575;SDS011;45700;50.930;5.168;2022-10-29T21:20:17;10.25;;;4.50;;
36575;SDS011;45700;50.930;5.168;2022-10-29T21:24:18;11.15;;;5.28;;
36575;SDS011;45700;50.930;5.168;2022-10-29T21:28:19;9.45;;;4.95;;
36575;SDS011;45700;50.930;5.168;2022-10-29T21:32:20;10.27;;;4.35;;
36575;SDS011;45700;50.930;5.168;2022-10-29T21:36:21;14.50;;;5.28;;
36575;SDS011;45700;50.930;5.168;2022-10-29T21:40:22;11.75;;;4.60;;
36575;SDS011;45700;50.930;5.168;2022-10-29T21:44:23;7.63;;;4.28;;
36575;SDS011;45700;50.930;5.168;2022-10-29T21:48:25;11.57;;;5.28;;
36575;SDS011;45700;50.930;5.168;2022-10-29T21:52:26;10.15;;;4.05;;
36575;SDS011;45700;50.930;5.168;2022-10-29T21:56:27;8.90;;;3.97;;
36575;SDS011;45700;50.930;5.168;2022-10-29T22:00:28;9.75;;;4.07;;
36575;SDS011;45700;50.930;5.168;2022-10-29T22:04:29;9.98;;;3.70;;
36575;SDS011;45700;50.930;5.168;2022-10-29T22:08:31;10.13;;;4.35;;
36575;SDS011;45700;50.930;5.168;2022-10-29T22:12:32;8.63;;;4.20;;
36575;SDS011;45700;50.930;5.168;2022-10-29T22:16:33;7.18;;;3.88;;
36575;SDS011;45700;50.930;5.168;2022-10-29T22:20:34;9.18;;;4.07;;
36575;SDS011;45700;50.930;5.168;2022-10-29T22:24:35;11.02;;;4.15;;
36575;SDS011;45700;50.930;5.168;2022-10-29T22:28:36;9.95;;;5.03;;
36575;SDS011;45700;50.930;5.168;2022-10-29T22:32:37;10.45;;;4.50;;
36575;SDS011;45700;50.930;5.168;2022-10-29T22:36:38;11.45;;;5.03;;
36575;SDS011;45700;50.930;5.168;2022-10-29T22:40:39;8.23;;;4.53;;
36575;SDS011;45700;50.930;5.168;2022-10-29T22:44:40;9.55;;;4.63;;
36575;SDS011;45700;50.930;5.168;2022-10-29T22:48:41;11.50;;;4.32;;
36575;SDS011;45700;50.930;5.168;2022-10-29T22:52:42;9.55;;;3.92;;
36575;SDS011;45700;50.930;5.168;2022-10-29T22:56:43;12.38;;;4.28;;
36575;SDS011;45700;50.930;5.168;2022-10-29T23:00:44;6.72;;;3.70;;
36575;SDS011;45700;50.930;5.168;2022-10-29T23:04:45;8.27;;;3.58;;
36575;SDS011;45700;50.930;5.168;2022-10-29T23:08:46;10.32;;;4.40;;
36575;SDS011;45700;50.930;5.168;2022-10-29T23:12:49;7.13;;;3.47;;
36575;SDS011;45700;50.930;5.168;2022-10-29T23:16:50;11.05;;;4.15;;
36575;SDS011;45700;50.930;5.168;2022-10-29T23:21:01;6.72;;;3.63;;
36575;SDS011;45700;50.930;5.168;2022-10-29T23:25:03;8.02;;;4.03;;
36575;SDS011;45700;50.930;5.168;2022-10-29T23:29:04;9.65;;;4.30;;
36575;SDS011;45700;50.930;5.168;2022-10-29T23:33:05;7.95;;;3.60;;
36575;SDS011;45700;50.930;5.168;2022-10-29T23:37:06;9.07;;;3.90;;
36575;SDS011;45700;50.930;5.168;2022-10-29T23:41:07;8.07;;;3.78;;
36575;SDS011;45700;50.930;5.168;2022-10-29T23:45:08;8.52;;;3.45;;
36575;SDS011;45700;50.930;5.168;2022-10-29T23:49:09;11.40;;;3.85;;
36575;SDS011;45700;50.930;5.168;2022-10-29T23:53:10;5.13;;;3.30;;
36575;SDS011;45700;50.930;5.168;2022-10-29T23:57:12;6.15;;;3.80;;
